createdAt,value
2022-10-29T00:01:54.420Z,3.55
2022-10-29T00:06:56.596Z,4.68
2022-10-29T00:11:59.499Z,3.87
2022-10-29T00:17:01.655Z,3.70
2022-10-29T00:22:03.790Z,3.70
2022-10-29T00:27:05.928Z,3.75
2022-10-29T00:32:09.961Z,4.20
2022-10-29T00:37:12.207Z,5.22
2022-10-29T00:42:16.482Z,4.87
2022-10-29T00:47:29.411Z,5.07
2022-10-29T00:52:34.233Z,4.40
2022-10-29T00:57:41.566Z,5.95
2022-10-29T01:02:47.660Z,6.62
2022-10-29T01:07:49.843Z,6.15
2022-10-29T01:13:05.312Z,4.60
2022-10-29T01:18:24.594Z,4.00
2022-10-29T01:23:47.398Z,3.42
2022-10-29T01:29:18.217Z,4.57
2022-10-29T01:34:26.524Z,3.90
2022-10-29T01:39:39.719Z,5.50
2022-10-29T01:49:57.063Z,3.42
2022-10-29T01:54:59.407Z,3.40
2022-10-29T02:00:14.833Z,5.75
2022-10-29T02:05:26.421Z,4.93
2022-10-29T02:10:40.271Z,5.10
2022-10-29T02:15:50.137Z,4.15
2022-10-29T02:20:52.374Z,3.83
2022-10-29T02:25:54.546Z,4.70
2022-10-29T02:30:57.101Z,4.47
2022-10-29T02:35:59.238Z,4.97
2022-10-29T02:41:01.369Z,5.45
2022-10-29T02:46:17.861Z,4.15
2022-10-29T02:51:19.994Z,3.95
2022-10-29T02:56:22.255Z,4.00
2022-10-29T03:01:24.596Z,4.07
2022-10-29T03:06:26.868Z,5.00
2022-10-29T03:11:28.953Z,3.90
2022-10-29T03:16:31.045Z,4.22
2022-10-29T03:21:33.131Z,3.87
2022-10-29T03:26:35.259Z,3.85
2022-10-29T03:31:37.297Z,3.55
2022-10-29T03:36:39.407Z,2.90
2022-10-29T03:41:41.718Z,3.75
2022-10-29T03:46:43.924Z,3.25
2022-10-29T03:51:46.895Z,2.87
2022-10-29T03:56:48.978Z,4.00
2022-10-29T04:01:51.163Z,4.00
2022-10-29T04:06:53.478Z,3.55
2022-10-29T04:11:55.840Z,3.87
2022-10-29T04:16:58.750Z,3.80
2022-10-29T04:32:45.147Z,3.90
2022-10-29T04:37:47.257Z,4.43
2022-10-29T04:42:49.366Z,3.80
2022-10-29T04:48:02.491Z,4.15
2022-10-29T04:53:06.175Z,3.00
2022-10-29T04:58:15.772Z,4.12
2022-10-29T05:03:17.972Z,4.75
2022-10-29T05:08:21.487Z,3.42
2022-10-29T05:13:23.652Z,3.75
2022-10-29T05:18:25.801Z,4.00
2022-10-29T05:23:27.872Z,3.83
2022-10-29T05:28:29.971Z,4.57
2022-10-29T05:33:32.110Z,4.32
2022-10-29T05:38:34.221Z,6.50
2022-10-29T05:43:36.309Z,5.57
2022-10-29T05:48:38.405Z,4.60
2022-10-29T05:53:40.478Z,5.07
2022-10-29T05:58:42.670Z,5.65
2022-10-29T06:03:44.955Z,3.90
2022-10-29T06:08:47.019Z,5.25
2022-10-29T06:13:49.145Z,5.18
2022-10-29T06:18:51.207Z,5.03
2022-10-29T06:23:54.742Z,4.95
2022-10-29T06:28:56.830Z,4.97
2022-10-29T06:33:58.943Z,4.40
2022-10-29T06:39:01.126Z,4.85
2022-10-29T06:44:03.181Z,5.65
2022-10-29T06:49:05.303Z,5.82
2022-10-29T06:54:07.443Z,6.07
2022-10-29T06:59:09.508Z,4.93
2022-10-29T07:04:11.671Z,5.32
2022-10-29T07:09:13.825Z,5.55
2022-10-29T07:14:15.866Z,5.97
2022-10-29T07:19:17.933Z,5.40
2022-10-29T07:24:19.998Z,5.80
2022-10-29T07:29:22.010Z,5.77
2022-10-29T07:34:24.115Z,6.40
2022-10-29T07:39:26.301Z,7.00
2022-10-29T07:44:28.484Z,7.50
2022-10-29T07:49:30.636Z,7.07
2022-10-29T07:54:33.125Z,8.00
2022-10-29T07:59:35.357Z,6.30
2022-10-29T08:04:37.967Z,7.47
2022-10-29T08:09:40.694Z,5.25
2022-10-29T08:19:45.324Z,5.57
2022-10-29T08:24:47.509Z,6.12
2022-10-29T08:29:50.004Z,5.75
2022-10-29T08:34:52.181Z,5.47
2022-10-29T08:39:54.362Z,6.32
2022-10-29T08:45:20.326Z,6.25
2022-10-29T08:50:29.571Z,6.37
2022-10-29T08:55:37.519Z,6.15
2022-10-29T09:00:42.969Z,5.87
2022-10-29T09:05:45.203Z,7.50
2022-10-29T09:10:55.014Z,5.22
2022-10-29T09:16:18.966Z,5.28
2022-10-29T09:21:27.055Z,5.97
2022-10-29T09:26:35.532Z,6.10
2022-10-29T09:31:42.246Z,6.05
2022-10-29T09:36:46.520Z,5.70
2022-10-29T09:41:53.859Z,6.37
2022-10-29T09:47:22.426Z,5.95
2022-10-29T09:52:29.163Z,5.62
2022-10-29T09:57:34.238Z,4.85
2022-10-29T10:02:58.987Z,5.57
2022-10-29T10:08:11.927Z,6.70
2022-10-29T10:13:17.162Z,5.85
2022-10-29T10:18:29.288Z,5.57
2022-10-29T10:23:45.616Z,5.05
2022-10-29T10:29:13.538Z,5.35
2022-10-29T10:34:23.875Z,4.15
2022-10-29T10:39:43.890Z,4.60
2022-10-29T10:44:58.781Z,4.85
2022-10-29T10:50:29.762Z,3.55
2022-10-29T10:55:39.585Z,4.47
2022-10-29T11:00:57.846Z,5.60
2022-10-29T11:06:08.427Z,5.45
2022-10-29T11:11:31.597Z,4.68
2022-10-29T11:16:43.145Z,4.60
2022-10-29T11:22:28.025Z,5.15
2022-10-29T11:27:48.139Z,4.95
2022-10-29T11:33:17.436Z,4.85
2022-10-29T11:38:45.530Z,4.28
2022-10-29T11:43:47.945Z,4.22
2022-10-29T11:54:02.527Z,4.05
2022-10-29T11:59:38.379Z,3.75
2022-10-29T12:05:09.339Z,4.97
2022-10-29T12:10:21.419Z,4.62
2022-10-29T12:15:37.492Z,3.67
2022-10-29T12:21:01.286Z,4.72
2022-10-29T12:26:23.355Z,5.37
2022-10-29T12:31:35.430Z,5.07
2022-10-29T12:36:53.290Z,4.50
2022-10-29T12:42:04.656Z,4.78
2022-10-29T12:47:25.681Z,4.28
2022-10-29T12:52:57.077Z,4.12
2022-10-29T12:57:59.581Z,4.47
2022-10-29T13:03:02.311Z,3.80
2022-10-29T13:08:04.925Z,3.95
2022-10-29T13:13:16.111Z,4.15
2022-10-29T13:18:41.661Z,4.65
2022-10-29T13:24:03.037Z,4.35
2022-10-29T13:29:07.039Z,3.87
2022-10-29T13:34:09.162Z,4.68
2022-10-29T13:39:19.803Z,4.30
2022-10-29T13:44:25.017Z,4.00
2022-10-29T13:49:37.943Z,4.32
2022-10-29T13:54:42.532Z,4.57
2022-10-29T14:00:05.475Z,3.42
2022-10-29T14:05:23.973Z,4.17
2022-10-29T14:10:50.414Z,3.60
2022-10-29T14:16:06.991Z,4.22
2022-10-29T14:21:19.199Z,3.03
2022-10-29T14:26:21.358Z,4.05
2022-10-29T14:31:25.152Z,3.60
2022-10-29T14:36:36.594Z,3.45
2022-10-29T14:41:39.551Z,3.20
2022-10-29T14:46:43.346Z,4.43
2022-10-29T14:51:56.826Z,3.83
2022-10-29T14:57:07.786Z,5.15
2022-10-29T15:07:36.292Z,3.28
2022-10-29T15:12:39.803Z,3.67
2022-10-29T15:17:47.782Z,4.50
2022-10-29T15:22:55.564Z,4.15
2022-10-29T15:27:58.829Z,4.93
2022-10-29T15:33:03.675Z,4.53
2022-10-29T15:38:05.786Z,4.45
2022-10-29T15:43:28.215Z,4.20
2022-10-29T15:48:37.306Z,4.37
2022-10-29T15:53:40.508Z,4.50
2022-10-29T15:58:42.630Z,5.10
2022-10-29T16:03:44.718Z,4.22
2022-10-29T16:08:48.480Z,5.18
2022-10-29T16:13:54.400Z,3.97
2022-10-29T16:18:57.562Z,4.28
2022-10-29T16:23:59.689Z,5.70
2022-10-29T16:29:01.785Z,5.55
2022-10-29T16:34:05.547Z,6.57
2022-10-29T16:39:07.729Z,4.82
2022-10-29T16:44:09.875Z,5.65
2022-10-29T16:49:12.438Z,5.68
2022-10-29T16:54:15.031Z,5.05
2022-10-29T16:59:17.176Z,5.60
2022-10-29T17:04:19.331Z,6.72
2022-10-29T17:09:25.467Z,7.37
2022-10-29T17:14:27.938Z,9.13
2022-10-29T17:19:30.656Z,7.20
2022-10-29T17:29:36.487Z,6.40
2022-10-29T17:34:38.860Z,6.72
2022-10-29T17:39:41.048Z,6.37
2022-10-29T17:44:43.127Z,5.15
2022-10-29T17:49:45.212Z,5.22
2022-10-29T17:54:47.296Z,4.37
2022-10-29T17:59:49.496Z,5.28
2022-10-29T18:04:51.559Z,4.93
2022-10-29T18:09:53.757Z,6.18
2022-10-29T18:14:55.930Z,5.03
2022-10-29T18:19:58.380Z,4.80
2022-10-29T18:25:00.523Z,5.50
2022-10-29T18:30:03.460Z,5.70
2022-10-29T18:35:05.980Z,5.70
2022-10-29T18:40:08.854Z,6.62
2022-10-29T18:45:11.605Z,7.70
2022-10-29T18:55:16.151Z,9.23
2022-10-29T19:00:18.416Z,8.68
2022-10-29T19:05:20.523Z,8.13
2022-10-29T19:10:22.588Z,9.38
2022-10-29T19:15:24.703Z,12.65
2022-10-29T19:20:28.112Z,13.00
2022-10-29T19:25:33.890Z,19.35
2022-10-29T19:30:38.547Z,27.60
2022-10-29T19:35:40.665Z,29.77
2022-10-29T19:40:42.779Z,21.40
2022-10-29T19:45:45.336Z,6.25
2022-10-29T19:50:55.918Z,2.25
2022-10-29T19:55:58.232Z,1.20
2022-10-29T20:01:06.046Z,1.60
2022-10-29T20:06:09.245Z,2.78
2022-10-29T20:11:11.464Z,3.37
2022-10-29T20:16:17.220Z,3.00
2022-10-29T20:21:19.392Z,2.92
2022-10-29T20:26:22.524Z,2.72
2022-10-29T20:31:30.094Z,3.60
2022-10-29T20:36:33.131Z,2.35
2022-10-29T20:46:40.929Z,2.70
2022-10-29T20:51:45.854Z,3.53
2022-10-29T20:56:47.968Z,4.20
2022-10-29T21:01:51.663Z,8.65
2022-10-29T21:06:54.021Z,9.63
2022-10-29T21:11:56.070Z,3.42
2022-10-29T21:16:58.139Z,3.53
2022-10-29T21:22:00.192Z,5.12
2022-10-29T21:27:02.265Z,3.30
2022-10-29T21:32:04.454Z,4.82
2022-10-29T21:37:06.560Z,4.78
2022-10-29T21:42:08.621Z,4.60
2022-10-29T21:47:10.644Z,4.18
2022-10-29T21:52:12.965Z,4.47
2022-10-29T21:57:15.058Z,3.85
2022-10-29T22:02:17.251Z,3.78
2022-10-29T22:07:19.661Z,3.67
2022-10-29T22:12:21.768Z,4.82
2022-10-29T22:17:23.929Z,5.05
2022-10-29T22:22:26.038Z,4.25
2022-10-29T22:27:28.506Z,4.07
2022-10-29T22:32:30.658Z,4.35
2022-10-29T22:37:33.165Z,4.20
2022-10-29T22:42:35.678Z,4.07
2022-10-29T22:47:37.705Z,3.97
2022-10-29T22:57:42.967Z,3.47
2022-10-29T23:02:45.090Z,4.93
2022-10-29T23:07:47.580Z,4.78
2022-10-29T23:12:49.656Z,4.45
2022-10-29T23:17:54.799Z,3.92
2022-10-29T23:22:57.252Z,3.15
2022-10-29T23:27:59.612Z,2.65
2022-10-29T23:33:01.681Z,2.70
2022-10-29T23:38:03.994Z,2.25
2022-10-29T23:43:06.082Z,2.47
2022-10-29T23:48:09.449Z,3.60
2022-10-29T23:53:11.990Z,2.85
2022-10-29T23:58:15.276Z,2.67
